»·PEaware :: N799DS KPSP-KSNA

N799DS :: KPSP-KSNA

FLIGHT INFORMATION

Flight Status: Arrived
Operator: Privately registered:
United States
More flights under this callsign
Pilot: Wolfgang B. (15069)
Aircraft: CESSNA 172 SKYHAWK
(C172)
More flights by this aircraft type
Origin: KPSP Palm Springs Intl
United States
Destination: KSNA John Wayne-Orange Co
United States
More flights between these airports :: More routes between these airports
Route: CATH1 PSP V388 ACINS V283 SLI
File this flight plan on PilotEdge
Remarks: REQ CATHEDRAL 1 DEPARTURE
Altitude:
(Current/Filed)
10,000ft
Speed:
(Current/Filed)
120kts
Departed: 11-May-18 01:56 PM
Arrived: 11-May-18 03:11 PM
Distance/Time
Traveled:
69nm/1:15
Distance/Time
To Go:
Arrived

Flight Plot

Page will automatically refresh every two minutes.


Map Options




Map Legend


Flown Route
Filed Route
Departure Airport
Arrival Airport
Navaid (VOR, NDB)
Fix

Horizontal Profiles

Position Reports

Time Latitude Longitude Heading Altitude Ground
Speed
11-May-18 13:31 33.820473 -116.494956 320 388ft 0kts
11-May-18 13:32 33.820473 -116.494956 320 388ft 0kts
11-May-18 13:33 33.820473 -116.494956 320 388ft 0kts
11-May-18 13:34 33.820473 -116.494956 320 388ft 0kts
11-May-18 13:35 33.820473 -116.494956 320 388ft 0kts
11-May-18 13:36 33.820473 -116.494956 320 388ft 0kts
11-May-18 13:37 33.820473 -116.494956 320 388ft 0kts
11-May-18 13:38 33.820473 -116.494956 320 388ft 0kts
11-May-18 13:39 33.820473 -116.494956 320 388ft 0kts
11-May-18 13:40 33.820473 -116.494956 320 388ft 0kts
11-May-18 13:41 33.820473 -116.494956 320 388ft 0kts
11-May-18 13:42 33.820473 -116.494956 320 388ft 0kts
11-May-18 13:43 33.820473 -116.494956 320 388ft 0kts
11-May-18 13:44 33.820473 -116.494956 320 388ft 0kts
11-May-18 13:45 33.820473 -116.494956 320 388ft 0kts
11-May-18 13:46 33.820473 -116.494956 320 388ft 0kts
11-May-18 13:47 33.820473 -116.494956 320 388ft 0kts
11-May-18 13:48 33.820473 -116.494956 320 388ft 0kts
11-May-18 13:49 33.820498 -116.494985 306 388ft 1kts
11-May-18 13:50 33.821400 -116.496246 323 393ft 9kts
11-May-18 13:51 33.823379 -116.497982 322 397ft 10kts
11-May-18 13:52 33.824607 -116.499576 244 402ft 0kts
11-May-18 13:53 33.824607 -116.499577 244 402ft 0kts
11-May-18 13:54 33.824607 -116.499577 246 402ft 0kts
11-May-18 13:55 33.824478 -116.499866 243 403ft 9kts
11-May-18 13:56 33.830158 -116.504864 324 694ft 48kts
11-May-18 13:57 33.842389 -116.515412 321 1494ft 57kts
11-May-18 13:58 33.854933 -116.526425 322 2315ft 56kts
11-May-18 13:59 33.867559 -116.537597 318 3102ft 55kts
11-May-18 14:00 33.880616 -116.548696 322 3807ft 59kts
11-May-18 14:01 33.894271 -116.559421 327 4501ft 60kts
11-May-18 14:02 33.901953 -116.538906 98 5143ft 99kts
11-May-18 14:03 33.893571 -116.506730 107 5790ft 102kts
11-May-18 14:04 33.883936 -116.474605 108 6460ft 102kts
11-May-18 14:05 33.873951 -116.442136 110 7080ft 104kts
11-May-18 14:06 33.861946 -116.410467 119 7687ft 104kts
11-May-18 14:07 33.844067 -116.388579 208 8262ft 80kts
11-May-18 14:08 33.842163 -116.406577 287 8806ft 61kts
11-May-18 14:09 33.848106 -116.425725 287 9323ft 62kts
11-May-18 14:10 33.854229 -116.444967 286 9842ft 60kts
11-May-18 14:11 33.861366 -116.467506 287 9999ft 89kts
11-May-18 14:12 33.870924 -116.497030 287 9997ft 95kts
11-May-18 14:13 33.880349 -116.526373 287 9997ft 95kts
11-May-18 14:14 33.889912 -116.556218 287 9987ft 95kts
11-May-18 14:15 33.899388 -116.585847 287 9987ft 94kts
11-May-18 14:16 33.908837 -116.615436 287 9987ft 94kts
11-May-18 14:17 33.918238 -116.644879 287 9988ft 94kts
11-May-18 14:18 33.927390 -116.673566 286 10014ft 95kts
11-May-18 14:19 33.936886 -116.703370 285 10037ft 96kts
11-May-18 14:20 33.946499 -116.733560 285 10060ft 96kts
11-May-18 14:21 33.947654 -116.765064 266 10084ft 95kts
11-May-18 14:22 33.946634 -116.796871 265 10108ft 95kts
11-May-18 14:23 33.945557 -116.828944 264 10132ft 96kts
11-May-18 14:24 33.944468 -116.861103 262 10157ft 97kts
11-May-18 14:25 33.943330 -116.893833 262 10175ft 98kts
11-May-18 14:26 33.942142 -116.927884 262 10024ft 106kts
11-May-18 14:27 33.940967 -116.961946 261 10019ft 100kts
11-May-18 14:28 33.939108 -116.998367 244 9459ft 109kts
11-May-18 14:29 33.922037 -117.027313 235 8880ft 108kts
11-May-18 14:30 33.906131 -117.057895 236 8291ft 108kts
11-May-18 14:31 33.890772 -117.088414 236 8014ft 103kts
11-May-18 14:32 33.876464 -117.117311 236 8018ft 99kts
11-May-18 14:33 33.862533 -117.146124 235 8018ft 100kts
11-May-18 14:34 33.848892 -117.175266 236 8018ft 100kts
11-May-18 14:35 33.835448 -117.204779 236 8017ft 101kts
11-May-18 14:36 33.821921 -117.234730 236 8017ft 102kts
11-May-18 14:37 33.808663 -117.264236 236 8017ft 103kts
11-May-18 14:38 33.795805 -117.292688 236 8017ft 103kts
11-May-18 14:39 33.782056 -117.322765 236 8017ft 102kts
11-May-18 14:40 33.768331 -117.352077 236 8017ft 101kts
11-May-18 14:41 33.754114 -117.381173 236 8018ft 100kts
11-May-18 14:42 33.739488 -117.409598 236 8018ft 100kts
11-May-18 14:43 33.724488 -117.437708 236 8000ft 100kts
11-May-18 14:44 33.709603 -117.464859 235 8001ft 99kts
11-May-18 14:45 33.694225 -117.492467 236 8002ft 99kts
11-May-18 14:46 33.678734 -117.519969 236 8004ft 99kts
11-May-18 14:47 33.663334 -117.547257 236 8006ft 98kts
11-May-18 14:48 33.648032 -117.574530 236 8009ft 98kts
11-May-18 14:49 33.633037 -117.601630 236 8012ft 98kts
11-May-18 14:50 33.618620 -117.629086 247 8009ft 99kts
11-May-18 14:51 33.643067 -117.648317 341 7535ft 140kts
11-May-18 14:52 33.677698 -117.655959 340 6995ft 138kts
11-May-18 14:53 33.710545 -117.663416 340 6479ft 136kts
11-May-18 14:54 33.740902 -117.670604 340 5935ft 136kts
11-May-18 14:55 33.767728 -117.677295 340 5431ft 133kts
11-May-18 14:56 33.798430 -117.685222 340 5009ft 128kts
11-May-18 14:57 33.832745 -117.694263 341 4590ft 136kts
11-May-18 14:58 33.865922 -117.703458 340 4019ft 129kts
11-May-18 14:59 33.898865 -117.712660 336 4002ft 127kts
11-May-18 15:00 33.896442 -117.737066 202 3985ft 112kts
11-May-18 15:01 33.869946 -117.748626 201 3294ft 118kts
11-May-18 15:02 33.845582 -117.760637 212 2978ft 108kts
11-May-18 15:03 33.824378 -117.774748 200 2999ft 101kts
11-May-18 15:04 33.802700 -117.788415 209 2853ft 93kts
11-May-18 15:05 33.780357 -117.802736 205 2217ft 90kts
11-May-18 15:06 33.758619 -117.816875 204 1778ft 89kts
11-May-18 15:07 33.736828 -117.830274 203 1308ft 89kts
11-May-18 15:08 33.715048 -117.844157 204 842ft 92kts
11-May-18 15:09 33.695849 -117.856207 202 383ft 56kts
11-May-18 15:10 33.684213 -117.863623 199 179ft 50kts
11-May-18 15:11 33.675828 -117.869047 254 60ft 22kts
11-May-18 15:12 33.675893 -117.870019 261 60ft 0kts
11-May-18 15:13 33.675936 -117.870849 302 60ft 0kts
11-May-18 15:14 33.675936 -117.870849 302 60ft 0kts
11-May-18 15:15 33.675936 -117.870849 302 60ft 0kts
11-May-18 15:16 33.675936 -117.870849 302 60ft 0kts
11-May-18 15:17 33.675936 -117.870849 302 60ft 0kts
11-May-18 15:18 33.675936 -117.870849 302 60ft 0kts
11-May-18 15:19 33.678310 -117.867139 193 60ft 36kts
11-May-18 15:20 33.675936 -117.870849 302 60ft 0kts

Navigation Log

Ident Type
Flight plan parsing failed, navigation log unavailable